Terminal Aerodrome Forecast
Issued by NWS

Home | Current Version | Previous Version | Text Only | Print | Product List | Glossary On
Versions: 1 2 3 4 5 6 7 8 9 10 11 12 13 14 15 16 17 18 19 20 21 22
091
FTUS43 KIND 011720
TAFBMG
TAF
KBMG 011720Z 0118/0218 19004KT 6SM BR OVC008
     FM011900 19004KT P6SM VCSH OVC020
     FM012200 21004KT P6SM OVC035
     FM020300 VRB03KT 5SM BR BKN060
     FM020800 VRB03KT 2SM BR BKN015
     FM020900 VRB03KT 1SM BR BKN010
     FM021200 25004KT 2SM BR BKN008
     FM021700 27005KT P6SM BKN040=

USA.gov is the U.S. government's official web portal to all federal, state and local government web resources and services.